Time;durP1;ratioP1;P1;durP2;ratioP2;P2;SDS_P1;SDS_P2;PMS_P1;PMS_P2;Temp;Humidity;BMP_temperature;BMP_pressure;BME280_temperature;BME280_humidity;BME280_pressure;Samples;Min_cycle;Max_cycle;Signal;HPM_P1;HPM_P2
2022/09/07 00:01:37;;;;;;;;;;;;;;;13.62;57.49;100855.58;1678031;85;20190;-69
2022/09/07 00:04:03;;;;;;;;;;;;;;;13.61;57.54;100861.13;1680310;84;20286;-69
2022/09/07 00:06:29;;;;;;;;;;;;;;;13.59;57.62;100855.09;1678827;85;21195;-69
2022/09/07 00:08:55;;;;;;;;;;;;;;;13.61;57.68;100851.75;1672252;85;20198;-69
2022/09/07 00:11:21;;;;;;;;;;;;;;;13.62;57.72;100852.06;1670787;85;20209;-69
2022/09/07 00:13:48;;;;;;;;;;;;;;;13.62;57.77;100850.72;1680242;85;20233;-69
2022/09/07 00:16:16;;;;;;;;;;;;;;;13.65;57.85;100849.05;1675200;85;20762;-69
2022/09/07 00:18:42;;;;;;;;;;;;;;;13.66;57.88;100845.33;1676817;85;21820;-69
2022/09/07 00:21:09;;;;;;;;;;;;;;;13.67;57.94;100847.01;1681045;84;20486;-69
2022/09/07 00:23:36;;;;;;;;;;;;;;;13.64;58.00;100837.98;1681102;84;20194;-69
2022/09/07 00:26:08;;;;;;;;;;;;;;;13.62;58.04;100842.67;1681167;85;20212;-69
2022/09/07 00:28:34;;;;;;;;;;;;;;;13.59;58.10;100840.36;1680548;85;20195;-69
2022/09/07 00:31:00;;;;;;;;;;;;;;;13.56;58.16;100838.04;1680766;84;21107;-69
2022/09/07 00:33:26;;;;;;;;;;;;;;;13.55;58.22;100845.23;1681153;85;20310;-69
2022/09/07 00:35:52;;;;;;;;;;;;;;;13.53;58.29;100837.06;1681123;85;20218;-69
2022/09/07 00:38:18;;;;;;;;;;;;;;;13.50;58.32;100829.72;1681157;84;20227;-69
2022/09/07 00:40:43;;;;;;;;;;;;;;;13.48;58.38;100823.69;1681257;84;20324;-69
2022/09/07 00:43:19;;;;;;;;;;;;;;;13.48;58.43;100826.36;1680924;84;21077;-69
2022/09/07 00:45:45;;;;;;;;;;;;;;;13.49;58.50;100822.69;1677979;84;20211;-69
2022/09/07 00:48:15;;;;;;;;;;;;;;;13.48;58.55;100817.48;1680494;84;20210;-69
2022/09/07 00:50:52;;;;;;;;;;;;;;;13.46;58.59;100816.34;1680717;83;20425;-69
2022/09/07 00:53:33;;;;;;;;;;;;;;;13.45;58.65;100815.17;1680951;84;20195;-69
2022/09/07 00:55:59;;;;;;;;;;;;;;;13.43;58.70;100818.55;1680476;84;21217;-69
2022/09/07 00:58:25;;;;;;;;;;;;;;;13.42;58.78;100820.39;1652166;85;20252;-69
2022/09/07 01:00:51;;;;;;;;;;;;;;;13.40;58.82;100818.41;1681097;85;20249;-69
2022/09/07 01:03:19;;;;;;;;;;;;;;;13.42;58.88;100820.89;1680323;85;20189;-69
2022/09/07 01:06:07;;;;;;;;;;;;;;;13.37;58.93;100819.27;1681151;84;20463;-69
2022/09/07 01:08:34;;;;;;;;;;;;;;;13.36;58.98;100813.07;1675449;85;21344;-69
2022/09/07 01:11:00;;;;;;;;;;;;;;;13.32;59.01;100809.08;1666556;85;20210;-69
2022/09/07 01:13:26;;;;;;;;;;;;;;;13.29;59.05;100815.30;1681278;84;20233;-69
2022/09/07 01:16:10;;;;;;;;;;;;;;;13.24;59.10;100816.31;1680755;85;21438;-69
2022/09/07 01:19:01;;;;;;;;;;;;;;;13.21;59.18;100816.17;1681054;84;20495;-68
2022/09/07 01:21:55;;;;;;;;;;;;;;;13.21;59.27;100824.20;1681163;84;21236;-69
2022/09/07 01:24:44;;;;;;;;;;;;;;;13.18;59.32;100815.69;1663657;85;20491;-69
2022/09/07 01:27:29;;;;;;;;;;;;;;;13.15;59.39;100818.22;1681022;85;32487;-69
2022/09/07 01:30:09;;;;;;;;;;;;;;;13.11;59.46;100819.58;1680032;85;20679;-69
2022/09/07 01:32:58;;;;;;;;;;;;;;;13.09;59.53;100818.91;1653985;85;20211;-69
2022/09/07 01:35:37;;;;;;;;;;;;;;;13.05;59.58;100814.91;1680352;85;20738;-69
2022/09/07 01:38:09;;;;;;;;;;;;;;;13.00;59.64;100806.55;1680508;84;20491;-69
2022/09/07 01:40:45;;;;;;;;;;;;;;;12.98;59.69;100808.59;1659381;85;20244;-69
2022/09/07 01:43:14;;;;;;;;;;;;;;;12.95;59.74;100807.57;1681192;85;20491;-69
2022/09/07 01:45:40;;;;;;;;;;;;;;;12.93;59.79;100810.94;1680044;85;20221;-69
2022/09/07 01:48:06;;;;;;;;;;;;;;;12.90;59.83;100812.13;1680636;85;21053;-69
2022/09/07 01:50:36;;;;;;;;;;;;;;;12.88;59.88;100817.30;1681095;84;20203;-69
2022/09/07 01:53:14;;;;;;;;;;;;;;;12.84;59.94;100803.97;1680350;84;20174;-69
2022/09/07 01:55:47;;;;;;;;;;;;;;;12.81;60.03;100804.30;1681055;85;20190;-69
2022/09/07 01:58:24;;;;;;;;;;;;;;;12.78;60.08;100791.27;1650886;85;20536;-69
2022/09/07 02:00:53;;;;;;;;;;;;;;;12.76;60.18;100782.59;1677410;85;21066;-69
2022/09/07 02:03:29;;;;;;;;;;;;;;;12.75;60.26;100780.91;1676950;85;20218;-69
2022/09/07 02:06:00;;;;;;;;;;;;;;;12.74;60.31;100781.91;1677987;84;20498;-69
2022/09/07 02:08:30;;;;;;;;;;;;;;;12.73;60.41;100782.94;1677117;85;20218;-69
2022/09/07 02:11:01;;;;;;;;;;;;;;;12.71;60.48;100779.59;1676619;84;20233;-68
2022/09/07 02:13:35;;;;;;;;;;;;;;;12.72;60.53;100775.91;1680121;84;21036;-68
2022/09/07 02:16:10;;;;;;;;;;;;;;;12.71;60.60;100783.59;1681212;84;20546;-68
2022/09/07 02:18:44;;;;;;;;;;;;;;;12.71;60.67;100784.94;1680912;84;20177;-68
2022/09/07 02:21:10;;;;;;;;;;;;;;;12.72;60.74;100787.45;1679614;85;20514;-68
2022/09/07 02:23:39;;;;;;;;;;;;;;;12.72;60.80;100787.45;1651712;85;20273;-68
2022/09/07 02:26:08;;;;;;;;;;;;;;;12.71;60.86;100787.61;1681089;85;21224;-68
2022/09/07 02:28:35;;;;;;;;;;;;;;;12.71;60.94;100787.61;1675658;85;20179;-68
2022/09/07 02:31:01;;;;;;;;;;;;;;;12.70;60.97;100788.64;1681035;84;20211;-68
2022/09/07 02:33:28;;;;;;;;;;;;;;;12.68;61.01;100779.44;1681048;84;20199;-68
2022/09/07 02:35:54;;;;;;;;;;;;;;;12.66;61.06;100773.44;1676032;85;20251;-68
2022/09/07 02:38:20;;;;;;;;;;;;;;;12.67;61.11;100778.27;1680430;85;21769;-68
2022/09/07 02:40:52;;;;;;;;;;;;;;;12.66;61.14;100777.45;1680077;85;20475;-68
2022/09/07 02:43:18;;;;;;;;;;;;;;;12.67;61.17;100778.27;1666753;85;20230;-68
2022/09/07 02:46:04;;;;;;;;;;;;;;;12.70;61.18;100775.27;1665019;84;20265;-68
2022/09/07 02:48:37;;;;;;;;;;;;;;;12.69;61.20;100779.78;1670899;84;20215;-68
2022/09/07 02:51:31;;;;;;;;;;;;;;;12.70;61.23;100767.23;1671765;84;21836;-69
2022/09/07 02:54:07;;;;;;;;;;;;;;;12.70;61.23;100770.72;1671219;85;20456;-68
2022/09/07 02:56:57;;;;;;;;;;;;;;;12.71;61.24;100782.27;1679187;84;20175;-68
2022/09/07 02:59:46;;;;;;;;;;;;;;;12.73;61.24;100784.28;1680960;84;20187;-68
2022/09/07 03:02:21;;;;;;;;;;;;;;;12.75;61.22;100791.61;1681029;84;20214;-68
2022/09/07 03:05:02;;;;;;;;;;;;;;;12.75;61.20;100786.27;1680089;84;21059;-68
2022/09/07 03:07:37;;;;;;;;;;;;;;;12.77;61.20;100784.27;1671748;85;20241;-68
2022/09/07 03:10:04;;;;;;;;;;;;;;;12.78;61.19;100788.59;1680083;84;20227;-68
2022/09/07 03:12:43;;;;;;;;;;;;;;;12.77;61.18;100793.10;1679811;85;20223;-68
2022/09/07 03:15:11;;;;;;;;;;;;;;;12.76;61.17;100794.62;1680387;85;20219;-68
2022/09/07 03:17:37;;;;;;;;;;;;;;;12.76;61.15;100797.30;1680522;84;21128;-68
2022/09/07 03:20:04;;;;;;;;;;;;;;;12.75;61.12;100798.30;1680469;85;20191;-68
2022/09/07 03:22:32;;;;;;;;;;;;;;;12.75;61.11;100791.61;1680420;85;20524;-69
2022/09/07 03:24:57;;;;;;;;;;;;;;;12.73;61.09;100791.80;1679540;85;20224;-68
2022/09/07 03:27:23;;;;;;;;;;;;;;;12.71;61.09;100788.95;1679280;85;20190;-68
2022/09/07 03:29:49;;;;;;;;;;;;;;;12.71;61.08;100783.59;1676768;85;21211;-68
2022/09/07 03:32:15;;;;;;;;;;;;;;;12.71;61.05;100780.92;1675602;85;20201;-68
2022/09/07 03:34:41;;;;;;;;;;;;;;;12.71;61.04;100771.06;1680526;85;20265;-68
2022/09/07 03:37:07;;;;;;;;;;;;;;;12.73;61.01;100774.91;1674706;84;20293;-68
2022/09/07 03:39:33;;;;;;;;;;;;;;;12.72;60.99;100761.19;1680014;85;20816;-68
2022/09/07 03:41:59;;;;;;;;;;;;;;;12.72;60.99;100770.56;1680300;85;21131;-68
2022/09/07 03:44:25;;;;;;;;;;;;;;;12.70;60.96;100780.62;1680467;84;20289;-68
2022/09/07 03:46:51;;;;;;;;;;;;;;;12.70;60.95;100776.60;1680576;85;20304;-68
2022/09/07 03:49:17;;;;;;;;;;;;;;;12.67;60.92;100771.07;1680963;85;20683;-67
2022/09/07 03:51:43;;;;;;;;;;;;;;;12.65;60.92;100764.23;1678997;83;20183;-67
2022/09/07 03:54:09;;;;;;;;;;;;;;;12.63;60.89;100760.91;1671997;85;21136;-68
2022/09/07 03:56:35;;;;;;;;;;;;;;;12.60;60.86;100760.73;1673416;84;20375;-68
2022/09/07 03:59:00;;;;;;;;;;;;;;;12.57;60.84;100765.60;1673905;85;20269;-67
2022/09/07 04:01:27;;;;;;;;;;;;;;;12.53;60.81;100763.27;1673797;85;20246;-67
2022/09/07 04:03:56;;;;;;;;;;;;;;;12.50;60.78;100764.12;1674058;85;20188;-68
2022/09/07 04:06:22;;;;;;;;;;;;;;;12.45;60.73;100763.30;1673079;85;21313;-68
2022/09/07 04:08:48;;;;;;;;;;;;;;;12.40;60.76;100758.98;1665075;85;20267;-68
2022/09/07 04:11:16;;;;;;;;;;;;;;;12.37;60.74;100761.17;1671445;85;20290;-68
2022/09/07 04:13:42;;;;;;;;;;;;;;;12.35;60.72;100758.66;1672904;85;20255;-67
2022/09/07 04:16:09;;;;;;;;;;;;;;;12.33;60.71;100756.67;1673279;85;20250;-67
2022/09/07 04:18:36;;;;;;;;;;;;;;;12.31;60.67;100751.17;1673787;85;21787;-68
2022/09/07 04:21:01;;;;;;;;;;;;;;;12.28;60.67;100746.98;1673627;85;20472;-68
2022/09/07 04:23:28;;;;;;;;;;;;;;;12.28;60.66;100745.64;1672992;85;20195;-68
2022/09/07 04:25:53;;;;;;;;;;;;;;;12.27;60.61;100741.33;1673747;85;20198;-68
2022/09/07 04:28:19;;;;;;;;;;;;;;;12.30;60.61;100750.34;1673850;84;20342;-68
2022/09/07 04:30:46;;;;;;;;;;;;;;;12.29;60.56;100741.13;1654464;85;21040;-68
2022/09/07 04:33:12;;;;;;;;;;;;;;;12.26;60.52;100746.34;1673547;85;20207;-68
2022/09/07 04:35:38;;;;;;;;;;;;;;;12.27;60.51;100742.66;1673378;85;20203;-68
2022/09/07 04:38:04;;;;;;;;;;;;;;;12.29;60.46;100736.62;1667530;85;20215;-68
2022/09/07 04:40:30;;;;;;;;;;;;;;;12.31;60.40;100735.97;1672763;85;20195;-68
2022/09/07 04:42:56;;;;;;;;;;;;;;;12.32;60.33;100737.61;1673510;85;20570;-68
2022/09/07 04:45:22;;;;;;;;;;;;;;;12.34;60.28;100738.30;1673858;85;20269;-68
2022/09/07 04:47:48;;;;;;;;;;;;;;;12.41;60.27;100731.24;1673838;84;20297;-68
2022/09/07 04:50:15;;;;;;;;;;;;;;;12.78;60.30;100736.39;1673866;84;20684;-68
2022/09/07 04:52:42;;;;;;;;;;;;;;;13.36;60.14;100742.58;1676249;84;20511;-68
2022/09/07 04:55:08;;;;;;;;;;;;;;;13.90;59.80;100735.20;1679751;84;21230;-68
2022/09/07 04:57:35;;;;;;;;;;;;;;;14.35;59.39;100729.73;1680446;84;20190;-69
2022/09/07 05:00:01;;;;;;;;;;;;;;;14.78;58.96;100726.62;1680700;84;20191;-69
2022/09/07 05:02:27;;;;;;;;;;;;;;;15.18;58.61;100733.27;1680688;85;20523;-67
2022/09/07 05:04:53;;;;;;;;;;;;;;;15.33;57.98;100735.89;1680704;85;20302;-68
2022/09/07 05:07:19;;;;;;;;;;;;;;;15.49;57.54;100737.83;1680352;85;21097;-68
2022/09/07 05:09:46;;;;;;;;;;;;;;;15.83;57.20;100733.56;1679556;84;20870;-68
2022/09/07 05:12:11;;;;;;;;;;;;;;;16.12;56.64;100738.71;1680852;85;20187;-68
2022/09/07 05:14:38;;;;;;;;;;;;;;;16.41;56.20;100738.47;1679499;84;20652;-69
2022/09/07 05:17:06;;;;;;;;;;;;;;;16.79;55.72;100738.03;1682837;84;20191;-69
2022/09/07 05:19:32;;;;;;;;;;;;;;;16.96;55.15;100738.81;1682507;84;21138;-69
2022/09/07 05:21:58;;;;;;;;;;;;;;;17.22;54.61;100738.05;1680154;84;20310;-69
2022/09/07 05:24:25;;;;;;;;;;;;;;;17.35;54.16;100748.85;1678898;84;20767;-69
2022/09/07 05:26:51;;;;;;;;;;;;;;;17.41;53.39;100743.17;1679595;85;20519;-69
2022/09/07 05:29:17;;;;;;;;;;;;;;;17.23;53.09;100749.16;1667231;85;20218;-70
2022/09/07 05:31:43;;;;;;;;;;;;;;;16.95;53.27;100747.12;1680887;85;21141;-69
2022/09/07 05:34:09;;;;;;;;;;;;;;;16.65;53.44;100744.40;1679789;84;20280;-69
2022/09/07 05:36:35;;;;;;;;;;;;;;;16.47;53.58;100751.12;1681364;84;20191;-69
2022/09/07 05:39:02;;;;;;;;;;;;;;;16.25;53.67;100746.89;1680636;85;20562;-69
2022/09/07 05:41:28;;;;;;;;;;;;;;;16.17;53.61;100747.03;1680750;84;20235;-69
2022/09/07 05:43:53;;;;;;;;;;;;;;;16.12;53.55;100749.98;1679222;85;21051;-69
2022/09/07 05:46:19;;;;;;;;;;;;;;;16.11;53.49;100750.52;1681082;85;20818;-69
2022/09/07 05:48:45;;;;;;;;;;;;;;;16.14;53.40;100758.70;1681170;85;20320;-69
2022/09/07 05:51:12;;;;;;;;;;;;;;;16.08;53.27;100758.96;1680952;85;20254;-70
2022/09/07 05:53:42;;;;;;;;;;;;;;;16.11;53.13;100755.91;1677072;84;20243;-69
2022/09/07 05:56:08;;;;;;;;;;;;;;;16.10;52.99;100754.23;1675472;84;21841;-69
2022/09/07 05:58:34;;;;;;;;;;;;;;;16.12;52.87;100750.81;1673773;85;20198;-69
2022/09/07 06:01:10;;;;;;;;;;;;;;;16.28;52.81;100751.03;1674335;84;20230;-70
2022/09/07 06:03:37;;;;;;;;;;;;;;;16.25;52.50;100752.27;1671884;85;20466;-69
2022/09/07 06:06:09;;;;;;;;;;;;;;;16.13;52.19;100749.80;1673477;84;20195;-69
2022/09/07 06:08:38;;;;;;;;;;;;;;;16.14;52.07;100750.13;1663010;84;21176;-69
2022/09/07 06:11:06;;;;;;;;;;;;;;;16.24;51.90;100751.94;1674536;85;20541;-69
2022/09/07 06:13:32;;;;;;;;;;;;;;;16.16;51.64;100749.91;1673889;84;20180;-70
2022/09/07 06:16:01;;;;;;;;;;;;;;;16.14;51.51;100749.29;1674720;85;20423;-70
2022/09/07 06:18:30;;;;;;;;;;;;;;;16.21;51.41;100741.58;1674433;85;20195;-69
2022/09/07 06:21:03;;;;;;;;;;;;;;;16.41;51.21;100742.52;1675155;85;21156;-69
2022/09/07 06:23:30;;;;;;;;;;;;;;;16.41;51.03;100748.41;1673968;84;20341;-69
2022/09/07 06:25:56;;;;;;;;;;;;;;;16.46;50.92;100757.56;1674658;85;20203;-69
2022/09/07 06:28:29;;;;;;;;;;;;;;;16.55;50.83;100747.44;1675248;84;20665;-70
2022/09/07 06:31:03;;;;;;;;;;;;;;;16.73;50.71;100752.31;1677110;84;20242;-69
2022/09/07 06:33:29;;;;;;;;;;;;;;;16.77;50.55;100748.19;1675028;84;21877;-70
2022/09/07 06:35:58;;;;;;;;;;;;;;;16.81;50.41;100746.77;1675768;84;20245;-68
2022/09/07 06:38:24;;;;;;;;;;;;;;;16.90;50.33;100745.53;1667789;84;20220;-69
2022/09/07 06:40:50;;;;;;;;;;;;;;;16.95;50.21;100745.77;1673427;85;20187;-68
2022/09/07 06:43:16;;;;;;;;;;;;;;;17.05;50.07;100740.83;1675761;85;20199;-68
2022/09/07 06:45:42;;;;;;;;;;;;;;;17.00;49.91;100740.59;1675688;85;21120;-69
2022/09/07 06:48:08;;;;;;;;;;;;;;;17.06;49.79;100742.49;1675766;85;20209;-68
2022/09/07 06:50:34;;;;;;;;;;;;;;;17.18;49.76;100746.23;1684266;84;20263;-69
2022/09/07 06:53:00;;;;;;;;;;;;;;;17.17;49.53;100737.02;1676582;84;20699;-69
2022/09/07 06:55:26;;;;;;;;;;;;;;;17.05;49.28;100743.52;1681970;84;20474;-69
2022/09/07 06:57:52;;;;;;;;;;;;;;;17.00;49.15;100741.94;1678651;84;21085;-69
2022/09/07 07:00:19;;;;;;;;;;;;;;;16.90;48.98;100738.29;1675304;85;20186;-69
2022/09/07 07:02:44;;;;;;;;;;;;;;;16.98;48.97;100741.32;1675829;84;20693;-69
2022/09/07 07:05:10;;;;;;;;;;;;;;;17.27;48.93;100740.98;1674321;85;20265;-69
2022/09/07 07:07:36;;;;;;;;;;;;;;;17.48;48.89;100738.10;1675023;84;20218;-69
2022/09/07 07:10:03;;;;;;;;;;;;;;;17.55;48.72;100744.01;1674828;84;21221;-69
2022/09/07 07:12:29;;;;;;;;;;;;;;;17.63;48.65;100747.86;1675576;84;20182;-69
2022/09/07 07:14:56;;;;;;;;;;;;;;;17.85;48.58;100753.36;1676094;84;20219;-69
2022/09/07 07:17:22;;;;;;;;;;;;;;;18.05;48.57;100752.82;1673638;84;20443;-69
2022/09/07 07:19:48;;;;;;;;;;;;;;;18.31;48.48;100750.59;1674173;85;20479;-69
2022/09/07 07:22:14;;;;;;;;;;;;;;;18.50;48.28;100747.54;1675665;84;21752;-69
2022/09/07 07:24:40;;;;;;;;;;;;;;;18.48;48.07;100747.23;1674846;85;20218;-69
2022/09/07 07:27:06;;;;;;;;;;;;;;;18.47;47.94;100744.20;1674361;84;20213;-69
2022/09/07 07:29:32;;;;;;;;;;;;;;;18.54;47.82;100747.45;1675891;85;20281;-69
2022/09/07 07:31:58;;;;;;;;;;;;;;;18.59;47.75;100747.63;1675657;85;20218;-69
2022/09/07 07:34:24;;;;;;;;;;;;;;;18.70;47.74;100749.67;1675238;85;21034;-69
2022/09/07 07:36:50;;;;;;;;;;;;;;;19.06;47.72;100756.68;1675550;84;20297;-70
2022/09/07 07:39:15;;;;;;;;;;;;;;;19.21;47.62;100758.55;1664150;84;20221;-70
2022/09/07 07:41:42;;;;;;;;;;;;;;;19.36;47.52;100759.08;1675719;84;20195;-69
2022/09/07 07:44:08;;;;;;;;;;;;;;;19.41;47.35;100755.24;1675403;84;20243;-70
2022/09/07 07:46:34;;;;;;;;;;;;;;;19.30;47.16;100754.55;1676287;84;21167;-69
2022/09/07 07:49:00;;;;;;;;;;;;;;;19.24;47.03;100748.67;1675611;85;20257;-69
2022/09/07 07:51:26;;;;;;;;;;;;;;;19.09;46.87;100744.08;1674918;84;20312;-69
2022/09/07 07:53:52;;;;;;;;;;;;;;;19.14;46.85;100745.59;1676076;84;20200;-69
2022/09/07 07:56:18;;;;;;;;;;;;;;;19.27;46.70;100740.12;1675321;84;20786;-70
2022/09/07 07:58:45;;;;;;;;;;;;;;;19.34;46.62;100742.25;1675246;85;21369;-70
2022/09/07 08:01:13;;;;;;;;;;;;;;;19.48;46.55;100748.95;1675503;85;20199;-70
2022/09/07 08:03:40;;;;;;;;;;;;;;;19.50;46.39;100745.48;1675640;85;20220;-70
2022/09/07 08:06:13;;;;;;;;;;;;;;;19.50;46.31;100742.78;1676761;84;20183;-70
2022/09/07 08:08:39;;;;;;;;;;;;;;;19.44;46.23;100741.80;1675937;84;20190;-70
2022/09/07 08:11:07;;;;;;;;;;;;;;;19.47;46.17;100750.82;1675751;85;21963;-70
2022/09/07 08:13:37;;;;;;;;;;;;;;;19.49;45.99;100750.61;1675164;85;20503;-70
2022/09/07 08:16:04;;;;;;;;;;;;;;;19.65;46.07;100752.77;1675596;85;20207;-70
2022/09/07 08:18:31;;;;;;;;;;;;;;;19.86;45.95;100751.86;1675738;85;20483;-70
2022/09/07 08:21:07;;;;;;;;;;;;;;;19.91;45.76;100752.55;1687782;84;20238;-70
2022/09/07 08:23:33;;;;;;;;;;;;;;;19.83;45.55;100744.70;1668571;84;21747;-71
2022/09/07 08:25:59;;;;;;;;;;;;;;;19.69;45.28;100739.94;1675779;84;20225;-70
2022/09/07 08:28:29;;;;;;;;;;;;;;;19.57;45.14;100738.14;1675428;85;20218;-70
2022/09/07 08:30:55;;;;;;;;;;;;;;;19.63;45.21;100730.52;1675551;85;20199;-70
2022/09/07 08:33:21;;;;;;;;;;;;;;;19.96;45.25;100732.39;1673307;84;20219;-70
2022/09/07 08:36:03;;;;;;;;;;;;;;;20.05;45.08;100717.53;1675532;84;21108;-70
2022/09/07 08:38:30;;;;;;;;;;;;;;;20.01;44.90;100720.38;1674166;84;20556;-70
2022/09/07 08:40:56;;;;;;;;;;;;;;;20.11;44.91;100717.15;1672844;84;20495;-70
2022/09/07 08:43:56;;;;;;;;;;;;;;;20.13;44.71;100714.51;1676356;84;20480;-70
2022/09/07 08:46:33;;;;;;;;;;;;;;;20.28;44.70;100713.66;1619795;85;20180;-70
2022/09/07 08:49:00;;;;;;;;;;;;;;;20.39;44.60;100714.27;1675358;84;21212;-70
2022/09/07 08:51:32;;;;;;;;;;;;;;;20.56;44.62;100713.64;1675278;84;20179;-70
2022/09/07 08:53:58;;;;;;;;;;;;;;;20.65;44.60;100708.23;1675325;83;20487;-70
2022/09/07 08:56:28;;;;;;;;;;;;;;;20.74;44.70;100702.78;1678779;85;20254;-70
2022/09/07 08:58:54;;;;;;;;;;;;;;;20.79;44.72;100700.22;1680399;85;20207;-70
2022/09/07 09:01:27;;;;;;;;;;;;;;;20.85;44.79;100691.99;1679774;84;21978;-70
2022/09/07 09:03:53;;;;;;;;;;;;;;;21.05;44.80;100689.50;1681206;84;20165;-70
2022/09/07 09:06:22;;;;;;;;;;;;;;;20.93;44.58;100692.20;1681225;85;20233;-70
2022/09/07 09:09:04;;;;;;;;;;;;;;;20.89;44.57;100693.72;1681630;84;20183;-70
2022/09/07 09:11:57;;;;;;;;;;;;;;;21.09;44.65;100686.11;1681276;84;20195;-70
2022/09/07 09:14:53;;;;;;;;;;;;;;;21.20;44.44;100684.00;1676168;85;21931;-70
2022/09/07 09:17:31;;;;;;;;;;;;;;;21.25;44.31;100674.61;1679497;84;20183;-70
2022/09/07 09:20:04;;;;;;;;;;;;;;;21.11;43.94;100679.94;1653442;85;20511;-70
2022/09/07 09:22:30;;;;;;;;;;;;;;;21.07;43.86;100676.03;1658329;84;20838;-70
2022/09/07 09:25:05;;;;;;;;;;;;;;;21.14;43.71;100674.08;1681207;84;20870;-70
2022/09/07 09:27:31;;;;;;;;;;;;;;;21.22;43.53;100666.94;1676012;85;21188;-70
2022/09/07 09:29:57;;;;;;;;;;;;;;;21.23;43.39;100664.53;1680228;85;20218;-70
2022/09/07 09:32:34;;;;;;;;;;;;;;;21.40;43.38;100662.79;1680139;85;20268;-70
2022/09/07 09:35:03;;;;;;;;;;;;;;;21.49;43.13;100665.17;1680421;85;20195;-70
2022/09/07 09:37:33;;;;;;;;;;;;;;;21.39;42.67;100658.41;1679060;85;20230;-70
2022/09/07 09:39:59;;;;;;;;;;;;;;;21.32;42.33;100664.48;1680504;84;21139;-70
2022/09/07 09:42:25;;;;;;;;;;;;;;;21.45;42.31;100658.55;1679775;85;20789;-70
2022/09/07 09:44:51;;;;;;;;;;;;;;;21.55;42.22;100662.86;1683206;84;20286;-70
2022/09/07 09:47:31;;;;;;;;;;;;;;;21.59;42.08;100661.33;1678954;85;20202;-70
2022/09/07 09:50:05;;;;;;;;;;;;;;;21.48;41.87;100664.34;1679601;85;20510;-70
2022/09/07 09:52:33;;;;;;;;;;;;;;;21.47;41.82;100663.20;1676796;84;21174;-70
2022/09/07 09:54:59;;;;;;;;;;;;;;;21.52;41.73;100660.09;1676158;85;20199;-70
2022/09/07 09:57:51;;;;;;;;;;;;;;;21.56;41.61;100664.52;1679481;84;20360;-70
2022/09/07 10:00:19;;;;;;;;;;;;;;;21.57;41.56;100663.47;1677766;84;20379;-70
2022/09/07 10:03:01;;;;;;;;;;;;;;;21.58;41.46;100658.31;1682759;84;20180;-70
2022/09/07 10:05:29;;;;;;;;;;;;;;;21.56;41.45;100660.45;1684082;84;21156;-70
2022/09/07 10:07:55;;;;;;;;;;;;;;;21.63;41.44;100661.16;1667770;85;20287;-70
2022/09/07 10:10:21;;;;;;;;;;;;;;;21.85;41.57;100663.55;1671947;84;20214;-70
2022/09/07 10:12:49;;;;;;;;;;;;;;;22.10;41.61;100669.59;1666058;84;20382;-70
2022/09/07 10:15:34;;;;;;;;;;;;;;;22.22;41.50;100667.69;1678212;85;20219;-70
2022/09/07 10:18:03;;;;;;;;;;;;;;;22.34;41.52;100669.03;1675523;85;21160;-70
2022/09/07 10:20:35;;;;;;;;;;;;;;;22.43;41.39;100666.74;1670191;84;20542;-70
2022/09/07 10:23:01;;;;;;;;;;;;;;;22.51;41.35;100660.94;1676654;84;20195;-70
2022/09/07 10:25:35;;;;;;;;;;;;;;;22.62;41.23;100660.08;1618726;85;20186;-70
2022/09/07 10:28:14;;;;;;;;;;;;;;;22.55;41.03;100658.03;1674360;85;20206;-70
2022/09/07 10:30:50;;;;;;;;;;;;;;;22.33;40.57;100653.25;1675434;85;21137;-71
2022/09/07 10:33:25;;;;;;;;;;;;;;;22.18;40.48;100655.64;1674838;85;20510;-71
2022/09/07 10:36:00;;;;;;;;;;;;;;;22.32;40.62;100656.20;1672639;84;20210;-70
2022/09/07 10:38:26;;;;;;;;;;;;;;;22.35;40.38;100654.36;1674940;85;20317;-71
2022/09/07 10:41:02;;;;;;;;;;;;;;;22.31;40.36;100656.73;1674863;85;20838;-71
2022/09/07 10:43:32;;;;;;;;;;;;;;;22.34;40.34;100645.38;1674933;85;21156;-70
2022/09/07 10:46:07;;;;;;;;;;;;;;;22.39;40.24;100646.84;1674589;85;20219;-71
2022/09/07 10:48:46;;;;;;;;;;;;;;;22.34;40.17;100638.58;1674184;85;20191;-70
2022/09/07 10:51:36;;;;;;;;;;;;;;;22.37;40.14;100636.77;1672830;84;20191;-70
2022/09/07 10:54:35;;;;;;;;;;;;;;;22.41;40.13;100637.91;1659226;85;20209;-70
2022/09/07 10:57:40;;;;;;;;;;;;;;;22.60;40.19;100644.52;1679392;85;21865;-70
2022/09/07 11:00:14;;;;;;;;;;;;;;;22.59;40.11;100640.97;1680309;85;20466;-70
2022/09/07 11:02:53;;;;;;;;;;;;;;;22.61;40.10;100631.23;1680080;84;20229;-70
2022/09/07 11:05:41;;;;;;;;;;;;;;;22.73;40.24;100623.89;1679639;85;20218;-70
2022/09/07 11:08:37;;;;;;;;;;;;;;;22.81;40.14;100623.47;1679011;85;20190;-70
2022/09/07 11:11:12;;;;;;;;;;;;;;;22.83;40.16;100629.51;1666651;85;20769;-70
2022/09/07 11:13:39;;;;;;;;;;;;;;;22.71;39.92;100633.63;1679585;85;20185;-69
2022/09/07 11:16:06;;;;;;;;;;;;;;;22.65;39.97;100619.63;1680241;85;20202;-70
2022/09/07 11:18:38;;;;;;;;;;;;;;;22.74;40.00;100610.56;1680217;84;21015;-70
2022/09/07 11:21:07;;;;;;;;;;;;;;;22.87;40.04;100615.16;1679008;84;20495;-70
2022/09/07 11:23:45;;;;;;;;;;;;;;;22.82;39.87;100614.25;1664898;84;21340;-69
2022/09/07 11:26:19;;;;;;;;;;;;;;;22.75;39.94;100610.86;1680399;85;20506;-70
2022/09/07 11:28:54;;;;;;;;;;;;;;;22.76;40.00;100617.39;1676613;85;20277;-70
2022/09/07 11:31:38;;;;;;;;;;;;;;;22.77;39.98;100613.61;1681100;85;20210;-70
2022/09/07 11:34:16;;;;;;;;;;;;;;;22.80;39.98;100612.29;1680915;85;20191;-70
2022/09/07 11:36:51;;;;;;;;;;;;;;;22.82;39.95;100611.53;1678431;84;21210;-70
2022/09/07 11:39:47;;;;;;;;;;;;;;;22.89;39.95;100612.20;1680917;85;20215;-70
2022/09/07 11:42:19;;;;;;;;;;;;;;;22.93;39.92;100606.56;1680916;84;20234;-69
2022/09/07 11:44:50;;;;;;;;;;;;;;;23.05;39.97;100608.66;1681122;84;20202;-69
2022/09/07 11:47:44;;;;;;;;;;;;;;;23.00;39.87;100615.39;1680950;84;20179;-70
2022/09/07 11:50:16;;;;;;;;;;;;;;;23.00;39.88;100616.75;1681214;85;21157;-70
2022/09/07 11:52:45;;;;;;;;;;;;;;;22.99;39.82;100601.48;1680830;84;20236;-70
2022/09/07 11:55:19;;;;;;;;;;;;;;;23.12;39.88;100604.41;1677525;85;20190;-70
2022/09/07 11:58:05;;;;;;;;;;;;;;;23.16;39.77;100607.76;1675333;85;20190;-70
2022/09/07 12:00:41;;;;;;;;;;;;;;;23.25;39.79;100604.94;1675638;84;20182;-70
2022/09/07 12:03:20;;;;;;;;;;;;;;;23.33;39.79;100599.58;1675494;84;21320;-70
2022/09/07 12:05:53;;;;;;;;;;;;;;;23.35;39.78;100592.84;1675611;85;20206;-70
2022/09/07 12:08:49;;;;;;;;;;;;;;;23.32;39.74;100587.89;1673629;85;20193;-70
2022/09/07 12:11:28;;;;;;;;;;;;;;;23.16;39.76;100585.16;1663861;85;20358;-70
2022/09/07 12:14:17;;;;;;;;;;;;;;;23.12;39.92;100575.84;1662179;85;20227;-70
2022/09/07 12:16:56;;;;;;;;;;;;;;;23.10;39.98;100576.11;1675376;84;21961;-70
2022/09/07 12:19:23;;;;;;;;;;;;;;;23.09;40.15;100567.64;1675700;84;20219;-70
2022/09/07 12:21:54;;;;;;;;;;;;;;;23.18;40.25;100574.34;1675720;85;20207;-70
2022/09/07 12:24:37;;;;;;;;;;;;;;;23.24;40.30;100569.25;1675630;85;20502;-70
2022/09/07 12:27:06;;;;;;;;;;;;;;;23.34;40.39;100566.68;1675558;85;20491;-70
2022/09/07 12:29:32;;;;;;;;;;;;;;;23.49;40.50;100568.02;1675602;85;21487;-70
2022/09/07 12:31:59;;;;;;;;;;;;;;;23.64;40.47;100569.06;1675302;85;20619;-70
2022/09/07 12:34:34;;;;;;;;;;;;;;;23.71;40.48;100568.87;1671348;84;20183;-70
2022/09/07 12:37:24;;;;;;;;;;;;;;;23.86;40.53;100567.16;1675565;85;20243;-70
2022/09/07 12:39:50;;;;;;;;;;;;;;;23.89;40.33;100572.09;1660286;84;20211;-70
2022/09/07 12:42:23;;;;;;;;;;;;;;;23.70;40.14;100561.24;1675588;85;21835;-70
2022/09/07 12:45:09;;;;;;;;;;;;;;;23.58;40.15;100562.41;1676598;84;20480;-67
2022/09/07 12:47:35;;;;;;;;;;;;;;;23.60;40.16;100553.47;1675241;84;20186;-67
2022/09/07 12:50:23;;;;;;;;;;;;;;;23.64;40.17;100552.73;1672649;84;20254;-67
2022/09/07 12:52:52;;;;;;;;;;;;;;;23.71;40.28;100558.81;1675380;84;20543;-67
2022/09/07 12:55:40;;;;;;;;;;;;;;;23.74;40.12;100549.30;1672066;83;22467;-67